Time;durP1;ratioP1;P1;durP2;ratioP2;P2;SDS_P1;SDS_P2;PMS_P1;PMS_P2;Temp;Humidity;BMP_temperature;BMP_pressure;BME280_temperature;BME280_humidity;BME280_pressure;Samples;Min_cycle;Max_cycle;Signal;HPM_P1;HPM_P2
2023/06/29 00:01:00;;;;;;;8.93;8.18;;;;;;;13.34;100.00;96128.78;4953245;28;20507;-89
2023/06/29 00:03:27;;;;;;;9.77;8.43;;;;;;;13.44;100.00;96149.47;4952361;28;20059;-87
2023/06/29 00:05:55;;;;;;;9.25;8.55;;;;;;;13.30;100.00;96143.06;4944281;28;20054;-87
2023/06/29 00:08:25;;;;;;;9.45;8.23;;;;;;;13.29;100.00;96145.84;4946310;28;20035;-88
2023/06/29 00:10:51;;;;;;;9.90;8.57;;;;;;;13.17;100.00;96140.91;4961245;28;20061;-91
2023/06/29 00:13:17;;;;;;;8.27;7.68;;;;;;;13.14;100.00;96154.25;4963600;28;20066;-86
2023/06/29 00:15:42;;;;;;;9.32;8.40;;;;;;;13.17;100.00;96179.13;4960748;28;20504;-89
2023/06/29 00:18:09;;;;;;;10.02;9.05;;;;;;;13.11;100.00;96196.19;4946631;28;20062;-90
2023/06/29 00:20:35;;;;;;;9.48;8.57;;;;;;;13.20;100.00;96192.63;4962347;28;20041;-90
2023/06/29 00:23:01;;;;;;;8.98;8.20;;;;;;;13.08;100.00;96193.88;4962179;28;20031;-85
2023/06/29 00:25:26;;;;;;;9.68;8.77;;;;;;;13.09;100.00;96215.50;4961831;28;20101;-86
2023/06/29 00:27:53;;;;;;;8.68;7.80;;;;;;;13.12;100.00;96221.22;4963760;28;20046;-90
2023/06/29 00:30:19;;;;;;;9.20;8.25;;;;;;;13.15;100.00;96226.13;4959921;28;20050;-86
2023/06/29 00:32:44;;;;;;;9.48;8.15;;;;;;;13.24;100.00;96210.53;4950379;28;20065;-89
2023/06/29 00:35:10;;;;;;;9.55;8.50;;;;;;;13.23;100.00;96188.09;4965209;28;20055;-87
2023/06/29 00:37:35;;;;;;;8.75;8.00;;;;;;;13.18;100.00;96168.56;4964402;28;20034;-88
2023/06/29 00:40:02;;;;;;;9.05;8.35;;;;;;;13.20;100.00;96153.63;4966340;28;20058;-89
2023/06/29 00:42:28;;;;;;;7.32;6.78;;;;;;;13.22;100.00;96150.88;4958036;28;20034;-87
2023/06/29 00:44:53;;;;;;;8.30;7.55;;;;;;;13.14;100.00;96132.63;4971101;28;20041;-85
2023/06/29 00:47:20;;;;;;;8.55;7.80;;;;;;;13.25;100.00;96140.16;4971813;28;20038;-86
2023/06/29 00:49:46;;;;;;;8.80;8.10;;;;;;;13.32;100.00;96141.16;4961128;28;20027;-90
2023/06/29 00:52:11;;;;;;;8.70;7.85;;;;;;;13.27;100.00;96158.19;4970623;28;20415;-88
2023/06/29 00:54:37;;;;;;;7.63;7.03;;;;;;;13.28;100.00;96170.22;4973022;28;20051;-89
2023/06/29 00:57:03;;;;;;;8.57;7.88;;;;;;;13.39;100.00;96170.75;4965028;28;20093;-88
2023/06/29 00:59:28;;;;;;;14.32;9.63;;;;;;;13.30;100.00;96215.09;4964530;28;20029;-90
2023/06/29 01:01:54;;;;;;;8.88;8.07;;;;;;;13.40;100.00;96247.03;4948441;28;20031;-88
2023/06/29 01:04:24;;;;;;;9.48;8.57;;;;;;;13.29;100.00;96255.94;4965729;28;20026;-91
2023/06/29 01:07:03;;;;;;;11.35;8.05;;;;;;;13.32;100.00;96278.25;4961623;28;20030;-88
2023/06/29 01:09:29;;;;;;;10.30;9.30;;;;;;;13.30;100.00;96267.97;4987813;28;20030;-90
2023/06/29 01:11:57;;;;;;;12.07;9.63;;;;;;;13.31;100.00;96258.38;4968243;28;20046;-89
2023/06/29 01:14:24;;;;;;;9.60;8.63;;;;;;;13.27;100.00;96254.44;4966923;28;20041;-89
2023/06/29 01:16:51;;;;;;;8.45;7.63;;;;;;;13.30;100.00;96262.75;4956399;28;20027;-88
2023/06/29 01:19:21;;;;;;;9.38;7.95;;;;;;;13.32;100.00;96247.00;4965617;28;20037;-92
2023/06/29 01:22:10;;;;;;;9.95;7.97;;;;;;;13.30;100.00;96222.91;4949702;28;20030;-88
2023/06/29 01:24:40;;;;;;;10.70;8.32;;;;;;;13.31;100.00;96251.41;4963307;28;20066;-88
2023/06/29 01:27:07;;;;;;;9.00;8.07;;;;;;;13.16;100.00;96263.34;4966297;28;20039;-91
2023/06/29 01:29:33;;;;;;;12.07;8.68;;;;;;;12.91;100.00;96267.53;4975628;28;20030;-91
2023/06/29 01:32:00;;;;;;;9.32;8.45;;;;;;;12.76;100.00;96297.66;4968624;28;20022;-89
2023/06/29 01:34:31;;;;;;;8.27;7.57;;;;;;;12.81;100.00;96298.00;4978114;28;20026;-90
2023/06/29 01:37:02;;;;;;;9.18;8.25;;;;;;;12.89;100.00;96308.47;4964485;28;20039;-90
2023/06/29 01:39:32;;;;;;;9.82;8.38;;;;;;;12.83;100.00;96290.91;4964601;28;20045;-89
2023/06/29 01:41:58;;;;;;;9.63;8.80;;;;;;;12.79;100.00;96289.56;4976004;28;20593;-89
2023/06/29 01:44:24;;;;;;;8.50;7.80;;;;;;;12.84;100.00;96287.34;4965690;28;20602;-88
2023/06/29 01:46:52;;;;;;;8.75;7.93;;;;;;;12.89;100.00;96294.66;4963718;28;20027;-90
2023/06/29 01:49:18;;;;;;;9.32;8.43;;;;;;;13.06;100.00;96299.03;4958048;28;20043;-89
2023/06/29 01:51:43;;;;;;;10.13;8.35;;;;;;;13.08;100.00;96303.13;4963595;28;20053;-88
2023/06/29 01:54:09;;;;;;;10.35;9.35;;;;;;;13.06;100.00;96293.81;4959936;28;20425;-88
2023/06/29 01:56:34;;;;;;;10.32;9.40;;;;;;;13.08;100.00;96291.88;4962132;28;20038;-88
2023/06/29 01:59:01;;;;;;;10.45;9.48;;;;;;;13.12;100.00;96296.66;4962275;28;20031;-88
2023/06/29 02:01:28;;;;;;;10.60;9.70;;;;;;;13.18;100.00;96301.25;4971937;28;20030;-92
2023/06/29 02:03:53;;;;;;;11.07;9.73;;;;;;;13.07;100.00;96306.66;4960271;28;20034;-85
2023/06/29 02:06:19;;;;;;;11.10;9.10;;;;;;;13.12;100.00;96301.88;4949896;28;20027;-85
2023/06/29 02:08:45;;;;;;;10.20;9.30;;;;;;;13.16;100.00;96300.56;4961922;28;20516;-87
2023/06/29 02:11:11;;;;;;;11.52;10.43;;;;;;;13.17;100.00;96310.00;4963199;28;20027;-85
2023/06/29 02:13:36;;;;;;;11.18;10.18;;;;;;;13.28;100.00;96315.94;4961333;28;20049;-86
2023/06/29 02:16:02;;;;;;;11.27;10.35;;;;;;;13.29;100.00;96302.78;4962364;28;20022;-86
2023/06/29 02:18:28;;;;;;;11.23;10.13;;;;;;;13.36;100.00;96305.56;4953176;28;20041;-86
2023/06/29 02:20:54;;;;;;;11.07;10.18;;;;;;;13.55;100.00;96324.38;4965229;28;20041;-87
2023/06/29 02:23:20;;;;;;;12.90;11.60;;;;;;;13.64;100.00;96328.69;4946447;28;20038;-81
2023/06/29 02:25:46;;;;;;;18.08;16.15;;;;;;;13.71;100.00;96327.06;4956831;28;20030;-82
2023/06/29 02:28:11;;;;;;;17.60;15.90;;;;;;;13.72;100.00;96331.31;4964017;28;20027;-85
2023/06/29 02:30:37;;;;;;;19.02;16.88;;;;;;;13.76;100.00;96342.22;4961090;28;20113;-84
2023/06/29 02:33:02;;;;;;;19.73;17.48;;;;;;;13.76;100.00;96336.19;4961617;28;20736;-82
2023/06/29 02:35:28;;;;;;;19.30;17.10;;;;;;;13.78;100.00;96335.06;4961136;28;20031;-86
2023/06/29 02:37:57;;;;;;;18.35;16.45;;;;;;;13.77;100.00;96333.47;4962584;28;20058;-85
2023/06/29 02:40:22;;;;;;;16.73;15.13;;;;;;;13.82;100.00;96348.59;4961537;28;20031;-88
2023/06/29 02:42:49;;;;;;;17.58;15.85;;;;;;;13.88;100.00;96350.56;4957152;28;20896;-81
2023/06/29 02:45:14;;;;;;;18.05;16.23;;;;;;;13.84;100.00;96351.88;4953625;28;20037;-84
2023/06/29 02:47:40;;;;;;;23.45;17.67;;;;;;;13.88;100.00;96356.59;4950817;28;20035;-84
2023/06/29 02:50:06;;;;;;;21.15;17.35;;;;;;;13.81;100.00;96354.78;4961577;28;20070;-85
2023/06/29 02:52:31;;;;;;;19.55;17.52;;;;;;;13.90;100.00;96372.88;4952452;28;20613;-87
2023/06/29 02:54:57;;;;;;;18.98;17.02;;;;;;;13.90;100.00;96370.28;4952152;28;20055;-86
2023/06/29 02:57:23;;;;;;;24.13;19.92;;;;;;;13.95;100.00;96378.47;4953177;28;20042;-86
2023/06/29 02:59:48;;;;;;;21.42;19.17;;;;;;;13.96;100.00;96376.69;4963090;28;20031;-87
2023/06/29 03:02:16;;;;;;;19.45;17.17;;;;;;;13.95;100.00;96383.66;4961845;28;20030;-85
2023/06/29 03:04:42;;;;;;;21.08;18.08;;;;;;;13.92;100.00;96386.59;4961117;28;20117;-85
2023/06/29 03:07:07;;;;;;;21.70;18.95;;;;;;;13.91;100.00;96390.16;4959472;28;20138;-86
2023/06/29 03:09:33;;;;;;;22.45;20.08;;;;;;;13.87;100.00;96386.22;4949449;28;20019;-88
2023/06/29 03:11:58;;;;;;;24.77;21.23;;;;;;;13.92;100.00;96383.97;4946209;28;20081;-86
2023/06/29 03:14:24;;;;;;;22.40;19.90;;;;;;;13.91;100.00;96391.94;4946628;28;20030;-85
2023/06/29 03:16:51;;;;;;;22.67;18.92;;;;;;;13.90;100.00;96385.91;4938097;28;20038;-87
2023/06/29 03:20:06;;;;;;;20.70;17.80;;;;;;;13.85;100.00;96380.34;4969373;28;20101;-89
2023/06/29 03:23:17;;;;;;;18.95;17.00;;;;;;;13.84;100.00;96383.13;4968186;28;20018;-87
2023/06/29 03:26:26;;;;;;;21.95;17.10;;;;;;;13.95;100.00;96383.66;4960257;28;20623;-88
2023/06/29 03:29:12;;;;;;;19.45;16.38;;;;;;;13.91;100.00;96377.13;4959127;28;20042;-82
2023/06/29 03:31:37;;;;;;;16.02;14.57;;;;;;;13.81;100.00;96366.00;4931005;28;20045;-86
2023/06/29 03:34:03;;;;;;;18.30;14.93;;;;;;;13.90;100.00;96375.50;4971413;28;20096;-90
2023/06/29 03:36:30;;;;;;;16.17;14.55;;;;;;;13.98;100.00;96367.72;4961324;28;20038;-92
2023/06/29 03:38:57;;;;;;;16.67;14.60;;;;;;;13.93;100.00;96359.56;4955372;28;20042;-93
2023/06/29 03:41:22;;;;;;;17.00;15.48;;;;;;;13.83;100.00;96347.63;4963151;28;20117;-93
2023/06/29 03:44:19;;;;;;;16.27;14.38;;;;;;;13.89;100.00;96363.47;4956187;28;20092;-87
2023/06/29 03:46:44;;;;;;;15.63;14.18;;;;;;;14.05;100.00;96352.28;4945167;28;20063;-90
2023/06/29 03:49:10;;;;;;;16.80;15.20;;;;;;;13.89;100.00;96327.00;4943485;28;20078;-85
2023/06/29 03:51:36;;;;;;;16.15;14.55;;;;;;;13.95;100.00;96302.91;4926456;28;20035;-84
2023/06/29 03:54:01;;;;;;;16.30;14.77;;;;;;;14.07;100.00;96306.03;4946991;28;20046;-86
2023/06/29 03:56:45;;;;;;;16.85;14.98;;;;;;;13.99;100.00;96270.38;4954151;28;20046;-92
2023/06/29 03:59:11;;;;;;;16.55;14.90;;;;;;;14.01;100.00;96268.41;4961760;28;20932;-83
2023/06/29 04:01:38;;;;;;;16.08;14.45;;;;;;;14.18;100.00;96280.53;4947785;28;20385;-85
2023/06/29 04:04:07;;;;;;;14.98;13.48;;;;;;;14.30;100.00;96265.38;4949882;28;20556;-85
2023/06/29 04:06:35;;;;;;;16.55;14.77;;;;;;;14.43;100.00;96239.69;4963915;28;20030;-83
2023/06/29 04:09:01;;;;;;;15.10;13.43;;;;;;;14.38;100.00;96187.25;4967009;28;20038;-84
2023/06/29 04:11:27;;;;;;;16.65;14.95;;;;;;;14.35;100.00;96137.22;4964816;28;20026;-85
2023/06/29 04:13:54;;;;;;;15.82;14.13;;;;;;;14.42;100.00;96135.56;4954987;28;20038;-83
2023/06/29 04:16:21;;;;;;;16.23;14.63;;;;;;;14.44;100.00;96147.47;4962326;28;20031;-84
2023/06/29 04:18:47;;;;;;;16.73;15.18;;;;;;;14.48;100.00;96150.56;4940521;28;20038;-87
2023/06/29 04:21:13;;;;;;;14.88;13.63;;;;;;;14.58;100.00;96127.72;4969561;28;20420;-82
2023/06/29 04:23:42;;;;;;;14.98;13.50;;;;;;;14.63;100.00;96104.59;4950713;28;20035;-86
2023/06/29 04:26:15;;;;;;;14.75;13.32;;;;;;;14.58;100.00;96033.84;4965031;28;20054;-85
2023/06/29 04:28:50;;;;;;;14.75;13.23;;;;;;;14.61;100.00;95992.63;4963782;28;20149;-87
2023/06/29 04:31:40;;;;;;;15.00;13.65;;;;;;;14.74;100.00;96005.13;4964187;28;20069;-86
2023/06/29 04:34:16;;;;;;;14.25;12.93;;;;;;;14.83;100.00;96006.72;4964808;28;20788;-87
2023/06/29 04:39:34;;;;;;;14.20;12.90;;;;;;;14.95;100.00;95966.22;4970309;28;20045;-87
2023/06/29 04:42:25;;;;;;;13.48;12.32;;;;;;;14.95;100.00;95947.97;4966028;28;20035;-87
2023/06/29 04:44:55;;;;;;;15.02;13.82;;;;;;;15.06;100.00;95915.41;4963989;28;20050;-86
2023/06/29 04:47:21;;;;;;;14.77;13.65;;;;;;;15.26;100.00;95885.25;4950173;28;20035;-87
2023/06/29 04:49:51;;;;;;;15.27;13.88;;;;;;;15.57;100.00;95770.28;4947263;28;20042;-80
2023/06/29 04:52:18;;;;;;;14.38;12.98;;;;;;;15.94;100.00;95642.09;4976613;28;20025;-80
2023/06/29 04:54:44;;;;;;;13.25;12.15;;;;;;;15.65;100.00;95537.75;4963775;28;20635;-84
2023/06/29 04:57:12;;;;;;;15.32;13.82;;;;;;;15.61;100.00;95584.31;4962887;28;20027;-83
2023/06/29 04:59:37;;;;;;;14.38;12.98;;;;;;;15.40;100.00;95622.63;4976096;28;20137;-83
2023/06/29 05:02:04;;;;;;;13.50;12.45;;;;;;;15.42;100.00;95660.59;4963454;28;20110;-84
2023/06/29 05:04:30;;;;;;;14.63;12.63;;;;;;;15.35;100.00;95679.78;4968435;28;20034;-86
2023/06/29 05:06:55;;;;;;;15.43;14.13;;;;;;;15.30;100.00;95680.31;4957111;28;20042;-85
2023/06/29 05:09:21;;;;;;;14.65;13.25;;;;;;;15.39;100.00;95692.28;4963881;28;20031;-83
2023/06/29 05:11:46;;;;;;;17.45;15.90;;;;;;;15.44;100.00;95678.69;4964301;28;20027;-84
2023/06/29 05:14:12;;;;;;;22.73;19.60;;;;;;;15.35;100.00;95627.59;5319241;23;20013;-84
2023/06/29 05:19:16;;;;;;;51.55;33.40;;;;;;;15.24;100.00;95603.56;4972273;28;20397;-94
2023/06/29 05:21:41;;;;;;;50.95;34.35;;;;;;;15.61;100.00;95549.53;4982810;28;20089;-92
2023/06/29 05:24:07;;;;;;;45.53;30.45;;;;;;;16.43;100.00;95447.84;4963043;28;20042;-95
2023/06/29 05:26:33;;;;;;;22.35;16.92;;;;;;;20.42;100.00;95037.22;4963697;28;20037;-92
2023/06/29 05:29:00;;;;;;;42.40;27.73;;;;;;;17.95;100.00;94993.69;4974480;28;20656;-89
2023/06/29 05:31:25;;;;;;;24.48;17.85;;;;;;;16.81;100.00;95025.19;4971345;28;20034;-91
2023/06/29 05:33:51;;;;;;;17.80;16.10;;;;;;;16.57;100.00;95044.16;4958205;28;20480;-95
2023/06/29 05:36:16;;;;;;;35.50;24.42;;;;;;;16.83;100.00;95041.47;4944145;28;20117;-90
2023/06/29 05:38:42;;;;;;;31.45;23.10;;;;;;;16.98;100.00;95015.06;4953428;28;20416;-88
2023/06/29 05:41:07;;;;;;;27.83;21.02;;;;;;;16.72;100.00;95029.03;4955863;28;20734;-92
2023/06/29 05:43:32;;;;;;;23.33;17.90;;;;;;;16.81;100.00;95027.78;4948162;28;20034;-96
2023/06/29 05:45:59;;;;;;;17.27;14.18;;;;;;;17.10;100.00;95018.63;4957807;28;20023;-94
2023/06/29 05:48:24;;;;;;;14.38;13.20;;;;;;;16.83;100.00;95023.97;4969169;28;20026;-93
2023/06/29 05:50:49;;;;;;;13.38;12.25;;;;;;;17.23;100.00;95026.41;4975002;28;20380;-84
2023/06/29 05:53:15;;;;;;;13.88;12.75;;;;;;;17.31;100.00;95008.63;4965744;28;20651;-94
2023/06/29 05:55:40;;;;;;;13.80;12.70;;;;;;;17.56;100.00;95006.09;4953755;28;20034;-90
2023/06/29 05:58:05;;;;;;;12.25;11.23;;;;;;;18.89;100.00;94981.81;4972476;28;20046;-94
2023/06/29 06:00:31;;;;;;;12.75;11.82;;;;;;;19.46;100.00;94962.06;4960919;28;20027;-88
2023/06/29 06:02:56;;;;;;;11.43;10.30;;;;;;;18.31;100.00;94984.06;4966450;28;20029;-86
2023/06/29 06:05:22;;;;;;;11.27;10.05;;;;;;;19.13;100.00;94964.34;4972503;28;20402;-91
2023/06/29 06:07:47;;;;;;;10.60;9.40;;;;;;;18.24;100.00;94982.50;4934933;28;20495;-90
2023/06/29 06:10:12;;;;;;;11.40;10.38;;;;;;;17.71;100.00;94990.88;4990852;28;20034;-92
2023/06/29 06:12:38;;;;;;;10.93;10.13;;;;;;;17.56;100.00;95007.91;4952576;28;20033;-91
2023/06/29 06:15:05;;;;;;;12.90;11.88;;;;;;;17.46;100.00;95002.28;4987521;28;20109;-86
2023/06/29 06:17:31;;;;;;;13.38;10.90;;;;;;;19.82;100.00;94974.25;4942128;29;20039;-87
2023/06/29 06:19:56;;;;;;;10.98;9.98;;;;;;;19.91;100.00;94961.56;4941656;29;20027;-89
2023/06/29 06:22:22;;;;;;;11.00;9.93;;;;;;;18.34;100.00;94982.81;4974797;28;20093;-84
2023/06/29 06:24:47;;;;;;;11.20;10.10;;;;;;;18.25;100.00;94992.81;4941616;28;20098;-89
2023/06/29 06:27:13;;;;;;;10.77;9.90;;;;;;;20.18;100.00;94954.81;4942534;29;20469;-89
2023/06/29 06:29:38;;;;;;;10.82;9.85;;;;;;;21.32;100.00;94948.72;4957176;28;20026;-83
2023/06/29 06:32:04;;;;;;;10.63;9.82;;;;;;;22.86;100.00;94949.69;4941483;29;20027;-87
2023/06/29 06:34:30;;;;;;;9.38;8.60;;;;;;;22.78;100.00;94934.31;4972820;28;20493;-87
2023/06/29 06:36:57;;;;;;;7.47;6.78;;;;;;;23.27;100.00;94924.53;4942591;28;20505;-85
2023/06/29 06:39:23;;;;;;;7.28;6.70;;;;;;;23.97;97.31;94939.41;4988130;28;20058;-87
2023/06/29 06:41:49;;;;;;;8.25;7.20;;;;;;;22.65;98.88;94933.84;4952813;28;20458;-86
2023/06/29 06:44:14;;;;;;;7.93;7.22;;;;;;;24.58;88.98;94928.16;4973217;28;21061;-82
2023/06/29 06:46:40;;;;;;;7.45;6.72;;;;;;;28.25;64.62;94926.88;4941150;29;20063;-87
2023/06/29 06:49:05;;;;;;;8.80;8.20;;;;;;;26.90;67.76;94924.06;4942602;28;20475;-82
2023/06/29 06:51:31;;;;;;;8.57;7.97;;;;;;;25.39;77.20;94925.78;4941542;28;20082;-86
2023/06/29 06:53:56;;;;;;;9.75;8.95;;;;;;;22.32;94.89;94935.53;4941380;29;20031;-87
2023/06/29 06:56:24;;;;;;;10.65;9.75;;;;;;;21.07;100.00;94929.78;4940325;29;20150;-84
2023/06/29 06:58:50;;;;;;;10.23;9.52;;;;;;;21.00;100.00;94937.03;4940443;29;20416;-86
2023/06/29 07:01:16;;;;;;;10.35;9.57;;;;;;;20.75;100.00;94932.09;4942326;29;20027;-86
2023/06/29 07:03:41;;;;;;;9.30;8.45;;;;;;;22.70;95.88;94926.03;4940130;29;20201;-87
2023/06/29 07:06:07;;;;;;;7.85;7.22;;;;;;;22.84;94.24;94935.16;4942666;28;20055;-84
2023/06/29 07:08:34;;;;;;;8.13;7.53;;;;;;;22.78;96.72;94933.50;4941464;29;20367;-83
2023/06/29 07:10:59;;;;;;;8.88;8.07;;;;;;;21.38;100.00;94929.31;4972979;28;20093;-84
2023/06/29 07:13:25;;;;;;;8.75;8.15;;;;;;;25.09;82.02;94931.81;4939238;29;20027;-85
2023/06/29 07:15:50;;;;;;;8.27;7.75;;;;;;;21.79;100.00;94930.78;4940701;29;20040;-85
2023/06/29 07:18:16;;;;;;;8.10;7.50;;;;;;;22.41;96.31;94925.38;4952674;28;20084;-85
2023/06/29 07:20:42;;;;;;;6.70;5.90;;;;;;;21.89;99.94;94922.25;4958881;28;20023;-88
2023/06/29 07:23:08;;;;;;;8.68;7.85;;;;;;;21.40;100.00;94935.16;4961078;28;20023;-88
2023/06/29 07:25:33;;;;;;;6.65;6.05;;;;;;;21.98;97.64;94926.09;4926455;28;20035;-85
2023/06/29 07:27:59;;;;;;;6.25;5.75;;;;;;;22.81;94.30;94939.09;4976204;28;20046;-85
2023/06/29 07:30:24;;;;;;;8.05;7.38;;;;;;;21.64;97.58;94935.03;4942326;28;20033;-85
2023/06/29 07:32:51;;;;;;;7.95;7.38;;;;;;;21.78;99.83;94941.56;4975933;28;20027;-87
2023/06/29 07:35:16;;;;;;;8.00;7.45;;;;;;;22.54;98.37;94936.34;4974810;28;20548;-85
2023/06/29 07:37:42;;;;;;;7.32;6.72;;;;;;;23.18;95.35;94939.25;4960919;28;20038;-89
2023/06/29 07:40:08;;;;;;;6.03;5.50;;;;;;;23.87;89.31;94934.03;4950240;28;20037;-80
2023/06/29 07:42:34;;;;;;;6.75;5.95;;;;;;;23.42;89.22;94923.88;4966725;28;20789;-85
2023/06/29 07:44:59;;;;;;;6.60;6.10;;;;;;;22.09;91.12;94925.19;4957126;28;20181;-86
2023/06/29 07:47:25;;;;;;;6.15;5.70;;;;;;;21.85;88.87;94923.75;4950135;28;20023;-86
2023/06/29 07:49:50;;;;;;;6.53;5.90;;;;;;;21.82;92.25;94926.88;4961692;28;20050;-85
2023/06/29 07:52:17;;;;;;;6.43;5.90;;;;;;;22.29;93.94;94924.66;4974660;28;20041;-85
2023/06/29 07:54:42;;;;;;;6.15;5.65;;;;;;;23.21;92.92;94933.47;4943603;28;20041;-83
2023/06/29 07:57:10;;;;;;;7.75;5.93;;;;;;;21.85;90.92;94924.56;4960407;28;20077;-84
2023/06/29 07:59:36;;;;;;;5.93;5.57;;;;;;;21.47;91.74;94927.91;4960670;28;20144;-84
2023/06/29 08:02:01;;;;;;;6.03;5.07;;;;;;;21.08;95.83;94930.59;4960721;28;20476;-86
2023/06/29 08:04:26;;;;;;;7.35;4.82;;;;;;;22.09;94.90;94921.75;4974255;28;20097;-84
2023/06/29 08:06:52;;;;;;;6.50;5.45;;;;;;;23.04;89.78;94920.34;4959098;28;20027;-83
2023/06/29 08:09:17;;;;;;;4.80;4.47;;;;;;;23.49;93.44;94920.00;4957729;28;20860;-85
2023/06/29 08:11:43;;;;;;;4.57;4.20;;;;;;;22.92;84.54;94929.44;4975547;28;20110;-86
2023/06/29 08:14:08;;;;;;;5.25;4.85;;;;;;;23.51;86.48;94927.66;4959962;28;20050;-82
2023/06/29 08:16:34;;;;;;;4.47;4.18;;;;;;;23.72;88.37;94928.66;4960350;28;20519;-82
2023/06/29 08:18:59;;;;;;;5.50;4.90;;;;;;;22.76;86.13;94917.13;4974772;28;20467;-84
2023/06/29 08:21:26;;;;;;;5.75;5.28;;;;;;;22.85;86.85;94921.72;4959746;28;20049;-84
2023/06/29 08:23:51;;;;;;;5.38;4.95;;;;;;;23.23;81.76;94912.84;4976133;28;20646;-83
2023/06/29 08:26:17;;;;;;;5.43;4.68;;;;;;;23.04;85.70;94930.09;4960817;28;20117;-80
2023/06/29 08:28:43;;;;;;;5.20;4.85;;;;;;;22.00;88.03;94926.63;4962172;28;20034;-81
2023/06/29 08:31:09;;;;;;;4.75;4.43;;;;;;;21.76;89.83;94922.56;4975566;28;20129;-82
2023/06/29 08:33:34;;;;;;;5.15;4.22;;;;;;;21.52;93.81;94919.25;4944312;28;20023;-82
2023/06/29 08:35:59;;;;;;;4.90;4.50;;;;;;;22.09;90.13;94917.25;4958399;28;20408;-80
2023/06/29 08:38:25;;;;;;;5.85;5.25;;;;;;;23.05;86.00;94916.63;4961080;28;20088;-79
2023/06/29 08:40:50;;;;;;;5.50;4.30;;;;;;;23.53;85.18;94915.81;4944381;28;20042;-79
2023/06/29 08:43:17;;;;;;;4.35;3.95;;;;;;;22.99;87.34;94914.16;4960658;28;20031;-80
2023/06/29 08:45:44;;;;;;;4.70;4.40;;;;;;;22.23;86.66;94912.44;4976550;28;20647;-82
2023/06/29 08:48:12;;;;;;;4.18;3.88;;;;;;;22.15;82.72;94912.88;4945902;28;20039;-84
2023/06/29 08:50:42;;;;;;;4.88;4.47;;;;;;;22.64;82.38;94913.75;4980217;28;20030;-81
2023/06/29 08:53:08;;;;;;;4.72;3.90;;;;;;;22.35;90.39;94913.13;4947236;28;20464;-83
2023/06/29 08:55:33;;;;;;;7.47;4.28;;;;;;;22.28;88.91;94915.97;4973592;28;20077;-82
2023/06/29 08:57:59;;;;;;;4.32;3.92;;;;;;;22.33;87.83;94912.59;4964366;28;20043;-80
2023/06/29 09:00:25;;;;;;;3.70;3.40;;;;;;;22.57;84.33;94906.03;4949851;28;20026;-80
2023/06/29 09:02:52;;;;;;;3.60;3.40;;;;;;;22.92;82.58;94910.94;4947966;28;20070;-78
2023/06/29 09:05:18;;;;;;;5.07;3.25;;;;;;;22.22;79.42;94903.72;4963756;28;20027;-84
2023/06/29 09:07:43;;;;;;;3.92;3.63;;;;;;;23.19;83.39;94895.09;4964237;28;20031;-82
2023/06/29 09:10:11;;;;;;;4.30;3.90;;;;;;;23.85;82.36;94897.28;4962735;28;20039;-83
2023/06/29 09:12:36;;;;;;;3.78;3.33;;;;;;;23.73;82.84;94893.22;4961849;28;20045;-84
2023/06/29 09:15:07;;;;;;;3.97;3.67;;;;;;;24.07;81.74;94903.22;4977840;28;20019;-83
2023/06/29 09:17:33;;;;;;;4.13;3.83;;;;;;;23.35;81.87;94896.81;4945103;28;20043;-85
2023/06/29 09:20:00;;;;;;;3.97;3.53;;;;;;;23.17;83.66;94895.34;4963356;28;20038;-81
2023/06/29 09:22:27;;;;;;;2.90;2.55;;;;;;;23.34;81.13;94898.66;4979249;28;20289;-84
2023/06/29 09:24:57;;;;;;;3.58;3.28;;;;;;;23.49;81.23;94884.81;4961672;28;20027;-83
2023/06/29 09:27:22;;;;;;;4.60;3.42;;;;;;;23.48;79.50;94893.78;4926939;28;20074;-84
2023/06/29 09:29:52;;;;;;;3.85;3.30;;;;;;;22.98;88.35;94896.75;4964840;28;20125;-81
2023/06/29 09:32:17;;;;;;;6.07;2.80;;;;;;;23.04;85.83;94893.09;4946891;28;20105;-80
2023/06/29 09:34:48;;;;;;;5.63;3.60;;;;;;;23.45;83.48;94883.72;4978733;28;20651;-82
2023/06/29 09:37:17;;;;;;;5.25;3.38;;;;;;;23.55;78.54;94878.50;4964073;28;20031;-82
2023/06/29 09:40:05;;;;;;;3.65;3.40;;;;;;;23.83;81.15;94890.63;4961608;28;20262;-81
2023/06/29 09:42:34;;;;;;;2.90;2.70;;;;;;;23.65;80.11;94880.44;4946007;28;20403;-85
2023/06/29 09:45:01;;;;;;;2.85;2.65;;;;;;;24.00;79.49;94884.13;4967062;28;20030;-83
2023/06/29 09:47:26;;;;;;;2.45;2.25;;;;;;;23.94;75.26;94879.06;4969698;28;20068;-81
2023/06/29 09:49:52;;;;;;;2.47;2.28;;;;;;;23.13;78.64;94880.22;4977526;28;20023;-81
2023/06/29 09:52:18;;;;;;;3.28;2.70;;;;;;;23.84;81.76;94871.06;4961804;28;20485;-87
2023/06/29 09:54:43;;;;;;;3.53;2.53;;;;;;;23.82;78.55;94873.16;4961145;28;20684;-87
2023/06/29 09:57:12;;;;;;;3.97;2.85;;;;;;;23.95;80.91;94867.44;4962578;28;20031;-84
2023/06/29 09:59:41;;;;;;;2.90;2.70;;;;;;;23.40;76.70;94868.63;4977368;28;20101;-84
2023/06/29 10:02:11;;;;;;;2.63;2.47;;;;;;;23.57;79.76;94871.91;4944543;28;20155;-82
2023/06/29 10:04:40;;;;;;;3.03;2.60;;;;;;;23.70;84.10;94869.88;4945046;28;20039;-83
2023/06/29 10:07:08;;;;;;;3.67;2.50;;;;;;;23.57;79.75;94863.19;4976728;28;20573;-81
2023/06/29 10:09:38;;;;;;;2.45;2.25;;;;;;;23.59;80.21;94867.19;4961372;28;20030;-81
2023/06/29 10:12:05;;;;;;;3.50;2.63;;;;;;;23.14;77.73;94863.31;4977889;28;20102;-84
2023/06/29 10:14:32;;;;;;;3.65;2.63;;;;;;;22.96;77.08;94854.69;4963223;28;20380;-85
2023/06/29 10:17:00;;;;;;;2.85;2.00;;;;;;;23.52;79.73;94850.72;4990244;28;20611;-81
2023/06/29 10:19:26;;;;;;;2.38;2.17;;;;;;;23.69;80.37;94857.72;4943548;28;20027;-82
2023/06/29 10:22:00;;;;;;;3.45;2.20;;;;;;;23.68;78.03;94854.28;4976809;28;20469;-79
2023/06/29 10:24:45;;;;;;;2.55;2.35;;;;;;;23.47;77.09;94849.91;4944678;28;20022;-83
2023/06/29 10:27:11;;;;;;;2.70;2.50;;;;;;;23.60;79.13;94847.59;4975804;28;20050;-84
2023/06/29 10:29:48;;;;;;;3.00;2.80;;;;;;;23.49;81.96;94847.78;4927236;29;20093;-83
2023/06/29 10:32:38;;;;;;;2.78;2.47;;;;;;;23.64;76.64;94839.97;4954673;28;20031;-82
2023/06/29 10:35:11;;;;;;;2.97;2.42;;;;;;;23.71;77.42;94839.75;4936040;28;20038;-84
2023/06/29 10:37:48;;;;;;;5.50;2.55;;;;;;;23.99;76.45;94832.25;4962407;28;20039;-85
2023/06/29 10:40:17;;;;;;;3.08;1.83;;;;;;;23.78;72.16;94835.84;4945385;28;20113;-85
2023/06/29 10:42:43;;;;;;;1.70;1.60;;;;;;;24.16;70.45;94832.09;4946972;28;20515;-80
2023/06/29 10:45:17;;;;;;;1.75;1.65;;;;;;;24.03;69.93;94832.53;4961738;28;20049;-78
2023/06/29 10:47:44;;;;;;;3.22;2.05;;;;;;;24.00;70.42;94833.84;4963648;28;20030;-81
2023/06/29 10:50:10;;;;;;;2.53;2.33;;;;;;;23.48;68.35;94828.47;4958910;28;20113;-82
2023/06/29 10:52:36;;;;;;;2.38;2.17;;;;;;;23.58;72.59;94823.25;4945495;28;20038;-86
2023/06/29 10:55:18;;;;;;;2.67;2.13;;;;;;;23.82;75.65;94826.34;4961660;28;20635;-82
2023/06/29 10:57:53;;;;;;;2.63;1.80;;;;;;;24.04;74.21;94818.25;4960736;28;20846;-82
2023/06/29 11:00:19;;;;;;;2.00;1.80;;;;;;;24.07;72.13;94820.38;4946171;28;20424;-80
2023/06/29 11:02:47;;;;;;;2.47;2.00;;;;;;;23.74;71.58;94818.88;4961973;28;20419;-82
2023/06/29 11:05:16;;;;;;;4.57;1.70;;;;;;;23.79;69.38;94820.75;4962525;28;20657;-81
2023/06/29 11:07:42;;;;;;;1.92;1.83;;;;;;;23.91;68.16;94819.50;4967988;28;20037;-84
2023/06/29 11:10:09;;;;;;;3.80;2.10;;;;;;;23.66;66.78;94815.91;4940538;28;20061;-83
2023/06/29 11:12:37;;;;;;;2.00;1.90;;;;;;;23.54;66.90;94808.16;4963610;28;20062;-88
2023/06/29 11:15:05;;;;;;;;;;;;;;;23.98;74.54;94819.28;4961852;28;20026;-81
2023/06/29 11:17:30;;;;;;;2.90;2.05;;;;;;;23.68;71.55;94819.09;4962890;28;19953;-79
2023/06/29 11:19:57;;;;;;;2.05;1.85;;;;;;;23.96;76.40;94814.22;4961499;28;20045;-82
2023/06/29 11:22:23;;;;;;;2.63;2.05;;;;;;;23.76;71.98;94816.75;4962742;28;20030;-80
2023/06/29 11:24:49;;;;;;;3.15;2.03;;;;;;;23.66;71.25;94821.19;4962284;28;20041;-83
2023/06/29 11:27:17;;;;;;;2.70;1.65;;;;;;;24.02;69.85;94813.19;4962454;28;20456;-82
2023/06/29 11:29:43;;;;;;;2.20;1.77;;;;;;;24.09;71.44;94815.59;4978114;28;20026;-80